sensor_id;sensor_type;location;lat;lon;timestamp;P1;durP1;ratioP1;P2;durP2;ratioP2
1214;SDS011;597;51.998;5.880;2022-08-21T00:02:24;10.60;;;5.97;;
1214;SDS011;597;51.998;5.880;2022-08-21T00:04:50;8.63;;;6.03;;
1214;SDS011;597;51.998;5.880;2022-08-21T00:07:16;10.43;;;6.97;;
1214;SDS011;597;51.998;5.880;2022-08-21T00:09:41;10.77;;;5.73;;
1214;SDS011;597;51.998;5.880;2022-08-21T00:12:06;9.63;;;5.97;;
1214;SDS011;597;51.998;5.880;2022-08-21T00:14:32;9.57;;;7.10;;
1214;SDS011;597;51.998;5.880;2022-08-21T00:16:57;11.10;;;7.10;;
1214;SDS011;597;51.998;5.880;2022-08-21T00:19:23;16.60;;;8.00;;
1214;SDS011;597;51.998;5.880;2022-08-21T00:21:50;12.30;;;7.17;;
1214;SDS011;597;51.998;5.880;2022-08-21T00:24:15;14.90;;;7.50;;
1214;SDS011;597;51.998;5.880;2022-08-21T00:26:40;9.60;;;6.33;;
1214;SDS011;597;51.998;5.880;2022-08-21T00:29:05;15.33;;;6.73;;
1214;SDS011;597;51.998;5.880;2022-08-21T00:31:31;10.80;;;6.90;;
1214;SDS011;597;51.998;5.880;2022-08-21T00:33:56;14.80;;;7.47;;
1214;SDS011;597;51.998;5.880;2022-08-21T00:36:21;11.57;;;6.97;;
1214;SDS011;597;51.998;5.880;2022-08-21T00:38:46;11.50;;;7.60;;
1214;SDS011;597;51.998;5.880;2022-08-21T00:41:11;10.90;;;7.23;;
1214;SDS011;597;51.998;5.880;2022-08-21T00:43:37;12.70;;;7.30;;
1214;SDS011;597;51.998;5.880;2022-08-21T00:46:04;9.20;;;6.23;;
1214;SDS011;597;51.998;5.880;2022-08-21T00:48:29;17.13;;;7.57;;
1214;SDS011;597;51.998;5.880;2022-08-21T00:50:56;10.33;;;7.00;;
1214;SDS011;597;51.998;5.880;2022-08-21T00:53:22;12.20;;;7.13;;
1214;SDS011;597;51.998;5.880;2022-08-21T00:55:47;15.50;;;7.27;;
1214;SDS011;597;51.998;5.880;2022-08-21T00:58:13;9.23;;;7.87;;
1214;SDS011;597;51.998;5.880;2022-08-21T01:00:40;11.80;;;7.60;;
1214;SDS011;597;51.998;5.880;2022-08-21T01:03:09;14.40;;;8.77;;
1214;SDS011;597;51.998;5.880;2022-08-21T01:05:34;10.57;;;7.90;;
1214;SDS011;597;51.998;5.880;2022-08-21T01:08:00;14.63;;;9.20;;
1214;SDS011;597;51.998;5.880;2022-08-21T01:10:25;14.70;;;8.47;;
1214;SDS011;597;51.998;5.880;2022-08-21T01:12:54;9.87;;;8.37;;
1214;SDS011;597;51.998;5.880;2022-08-21T01:15:20;15.90;;;9.63;;
1214;SDS011;597;51.998;5.880;2022-08-21T01:17:47;12.40;;;8.57;;
1214;SDS011;597;51.998;5.880;2022-08-21T01:20:13;10.20;;;8.43;;
1214;SDS011;597;51.998;5.880;2022-08-21T01:22:39;15.40;;;8.60;;
1214;SDS011;597;51.998;5.880;2022-08-21T01:25:04;13.60;;;8.90;;
1214;SDS011;597;51.998;5.880;2022-08-21T01:27:30;13.63;;;7.47;;
1214;SDS011;597;51.998;5.880;2022-08-21T01:30:01;12.57;;;8.70;;
1214;SDS011;597;51.998;5.880;2022-08-21T01:32:27;10.97;;;8.43;;
1214;SDS011;597;51.998;5.880;2022-08-21T01:34:53;12.43;;;10.00;;
1214;SDS011;597;51.998;5.880;2022-08-21T01:37:19;15.70;;;9.93;;
1214;SDS011;597;51.998;5.880;2022-08-21T01:39:45;17.20;;;10.07;;
1214;SDS011;597;51.998;5.880;2022-08-21T01:42:11;11.87;;;8.70;;
1214;SDS011;597;51.998;5.880;2022-08-21T01:44:36;13.17;;;10.10;;
1214;SDS011;597;51.998;5.880;2022-08-21T01:47:03;14.17;;;9.80;;
1214;SDS011;597;51.998;5.880;2022-08-21T01:49:28;13.70;;;10.10;;
1214;SDS011;597;51.998;5.880;2022-08-21T01:51:53;10.90;;;8.70;;
1214;SDS011;597;51.998;5.880;2022-08-21T01:54:19;15.93;;;10.30;;
1214;SDS011;597;51.998;5.880;2022-08-21T01:56:45;13.53;;;10.30;;
1214;SDS011;597;51.998;5.880;2022-08-21T01:59:11;15.37;;;10.03;;
1214;SDS011;597;51.998;5.880;2022-08-21T02:01:37;16.57;;;10.70;;
1214;SDS011;597;51.998;5.880;2022-08-21T02:04:04;18.53;;;10.90;;
1214;SDS011;597;51.998;5.880;2022-08-21T02:06:30;15.80;;;9.73;;
1214;SDS011;597;51.998;5.880;2022-08-21T02:08:55;13.77;;;10.40;;
1214;SDS011;597;51.998;5.880;2022-08-21T02:11:20;17.13;;;10.60;;
1214;SDS011;597;51.998;5.880;2022-08-21T02:13:45;14.00;;;10.27;;
1214;SDS011;597;51.998;5.880;2022-08-21T02:16:11;16.07;;;10.33;;
1214;SDS011;597;51.998;5.880;2022-08-21T02:18:37;18.80;;;11.33;;
1214;SDS011;597;51.998;5.880;2022-08-21T02:21:03;13.80;;;10.30;;
1214;SDS011;597;51.998;5.880;2022-08-21T02:23:29;15.97;;;10.77;;
1214;SDS011;597;51.998;5.880;2022-08-21T02:25:56;16.53;;;10.80;;
1214;SDS011;597;51.998;5.880;2022-08-21T02:28:21;18.83;;;13.40;;
1214;SDS011;597;51.998;5.880;2022-08-21T02:30:47;14.30;;;10.60;;
1214;SDS011;597;51.998;5.880;2022-08-21T02:33:13;16.30;;;11.53;;
1214;SDS011;597;51.998;5.880;2022-08-21T02:35:40;21.67;;;13.03;;
1214;SDS011;597;51.998;5.880;2022-08-21T02:38:08;18.10;;;11.73;;
1214;SDS011;597;51.998;5.880;2022-08-21T02:40:35;18.30;;;11.37;;
1214;SDS011;597;51.998;5.880;2022-08-21T02:43:01;13.33;;;11.07;;
1214;SDS011;597;51.998;5.880;2022-08-21T02:45:27;14.77;;;12.60;;
1214;SDS011;597;51.998;5.880;2022-08-21T02:48:04;20.80;;;12.70;;
1214;SDS011;597;51.998;5.880;2022-08-21T02:50:31;12.90;;;11.37;;
1214;SDS011;597;51.998;5.880;2022-08-21T02:52:56;22.73;;;13.43;;
1214;SDS011;597;51.998;5.880;2022-08-21T02:55:22;24.60;;;13.40;;
1214;SDS011;597;51.998;5.880;2022-08-21T02:57:48;16.63;;;12.00;;
1214;SDS011;597;51.998;5.880;2022-08-21T03:00:14;17.47;;;12.00;;
1214;SDS011;597;51.998;5.880;2022-08-21T03:02:40;19.17;;;13.00;;
1214;SDS011;597;51.998;5.880;2022-08-21T03:05:06;21.93;;;13.37;;
1214;SDS011;597;51.998;5.880;2022-08-21T03:07:31;23.20;;;13.90;;
1214;SDS011;597;51.998;5.880;2022-08-21T03:09:56;21.87;;;11.57;;
1214;SDS011;597;51.998;5.880;2022-08-21T03:12:22;28.03;;;15.43;;
1214;SDS011;597;51.998;5.880;2022-08-21T03:14:48;24.70;;;14.30;;
1214;SDS011;597;51.998;5.880;2022-08-21T03:17:13;20.57;;;13.33;;
1214;SDS011;597;51.998;5.880;2022-08-21T03:19:38;18.30;;;14.00;;
1214;SDS011;597;51.998;5.880;2022-08-21T03:22:04;22.17;;;13.30;;
1214;SDS011;597;51.998;5.880;2022-08-21T03:24:30;18.27;;;13.20;;
1214;SDS011;597;51.998;5.880;2022-08-21T03:26:55;27.37;;;14.60;;
1214;SDS011;597;51.998;5.880;2022-08-21T03:29:20;26.27;;;14.40;;
1214;SDS011;597;51.998;5.880;2022-08-21T03:31:46;15.97;;;14.10;;
1214;SDS011;597;51.998;5.880;2022-08-21T03:34:11;16.63;;;14.63;;
1214;SDS011;597;51.998;5.880;2022-08-21T03:36:36;16.47;;;13.67;;
1214;SDS011;597;51.998;5.880;2022-08-21T03:39:02;21.83;;;14.30;;
1214;SDS011;597;51.998;5.880;2022-08-21T03:41:27;21.17;;;14.87;;
1214;SDS011;597;51.998;5.880;2022-08-21T03:43:52;19.90;;;14.20;;
1214;SDS011;597;51.998;5.880;2022-08-21T03:46:18;18.50;;;15.00;;
1214;SDS011;597;51.998;5.880;2022-08-21T03:48:44;24.43;;;16.37;;
1214;SDS011;597;51.998;5.880;2022-08-21T03:51:09;18.93;;;14.63;;
1214;SDS011;597;51.998;5.880;2022-08-21T03:53:34;17.27;;;14.53;;
1214;SDS011;597;51.998;5.880;2022-08-21T03:56:00;18.73;;;15.20;;
1214;SDS011;597;51.998;5.880;2022-08-21T03:58:26;16.23;;;14.40;;
1214;SDS011;597;51.998;5.880;2022-08-21T04:00:52;24.67;;;14.70;;
1214;SDS011;597;51.998;5.880;2022-08-21T04:03:19;21.30;;;16.23;;
1214;SDS011;597;51.998;5.880;2022-08-21T04:05:44;19.53;;;15.00;;
1214;SDS011;597;51.998;5.880;2022-08-21T04:08:10;21.20;;;17.07;;
1214;SDS011;597;51.998;5.880;2022-08-21T04:10:36;27.33;;;15.87;;
1214;SDS011;597;51.998;5.880;2022-08-21T04:13:02;18.37;;;15.57;;
1214;SDS011;597;51.998;5.880;2022-08-21T04:15:28;22.60;;;16.07;;
1214;SDS011;597;51.998;5.880;2022-08-21T04:17:53;28.20;;;16.03;;
1214;SDS011;597;51.998;5.880;2022-08-21T04:20:19;23.93;;;16.67;;
1214;SDS011;597;51.998;5.880;2022-08-21T04:22:46;23.23;;;16.87;;
1214;SDS011;597;51.998;5.880;2022-08-21T04:25:13;25.23;;;17.20;;
1214;SDS011;597;51.998;5.880;2022-08-21T04:27:39;22.13;;;17.10;;
1214;SDS011;597;51.998;5.880;2022-08-21T04:30:05;22.80;;;18.33;;
1214;SDS011;597;51.998;5.880;2022-08-21T04:32:30;21.10;;;16.67;;
1214;SDS011;597;51.998;5.880;2022-08-21T04:34:59;19.20;;;16.27;;
1214;SDS011;597;51.998;5.880;2022-08-21T04:37:26;18.23;;;15.67;;
1214;SDS011;597;51.998;5.880;2022-08-21T04:39:51;20.70;;;15.50;;
1214;SDS011;597;51.998;5.880;2022-08-21T04:42:16;22.70;;;15.93;;
1214;SDS011;597;51.998;5.880;2022-08-21T04:44:42;20.43;;;16.30;;
1214;SDS011;597;51.998;5.880;2022-08-21T04:47:07;23.60;;;16.20;;
1214;SDS011;597;51.998;5.880;2022-08-21T04:49:33;33.23;;;18.47;;
1214;SDS011;597;51.998;5.880;2022-08-21T04:51:58;19.87;;;15.50;;
1214;SDS011;597;51.998;5.880;2022-08-21T04:54:23;23.87;;;16.97;;
1214;SDS011;597;51.998;5.880;2022-08-21T04:56:52;26.90;;;17.50;;
1214;SDS011;597;51.998;5.880;2022-08-21T04:59:20;23.13;;;15.80;;
1214;SDS011;597;51.998;5.880;2022-08-21T05:01:47;23.37;;;16.80;;
1214;SDS011;597;51.998;5.880;2022-08-21T05:04:14;22.40;;;17.43;;
1214;SDS011;597;51.998;5.880;2022-08-21T05:06:41;21.90;;;17.23;;
1214;SDS011;597;51.998;5.880;2022-08-21T05:09:09;23.77;;;17.80;;
1214;SDS011;597;51.998;5.880;2022-08-21T05:11:37;20.40;;;17.30;;
1214;SDS011;597;51.998;5.880;2022-08-21T05:14:02;27.00;;;17.87;;
1214;SDS011;597;51.998;5.880;2022-08-21T05:16:27;31.73;;;19.23;;
1214;SDS011;597;51.998;5.880;2022-08-21T05:18:53;20.57;;;18.10;;
1214;SDS011;597;51.998;5.880;2022-08-21T05:21:18;22.87;;;19.20;;
1214;SDS011;597;51.998;5.880;2022-08-21T05:23:43;19.87;;;17.70;;
1214;SDS011;597;51.998;5.880;2022-08-21T05:26:08;23.40;;;17.40;;
1214;SDS011;597;51.998;5.880;2022-08-21T05:28:34;21.57;;;17.67;;
1214;SDS011;597;51.998;5.880;2022-08-21T05:30:59;23.90;;;17.83;;
1214;SDS011;597;51.998;5.880;2022-08-21T05:33:25;30.10;;;19.10;;
1214;SDS011;597;51.998;5.880;2022-08-21T05:35:51;24.23;;;18.87;;
1214;SDS011;597;51.998;5.880;2022-08-21T05:38:17;23.83;;;18.80;;
1214;SDS011;597;51.998;5.880;2022-08-21T05:40:42;27.23;;;19.03;;
1214;SDS011;597;51.998;5.880;2022-08-21T05:43:08;25.77;;;19.30;;
1214;SDS011;597;51.998;5.880;2022-08-21T05:45:33;24.40;;;18.70;;
1214;SDS011;597;51.998;5.880;2022-08-21T05:48:04;25.63;;;19.77;;
1214;SDS011;597;51.998;5.880;2022-08-21T05:50:30;31.50;;;19.60;;
1214;SDS011;597;51.998;5.880;2022-08-21T05:52:56;30.67;;;20.00;;
1214;SDS011;597;51.998;5.880;2022-08-21T05:55:21;24.73;;;19.93;;
1214;SDS011;597;51.998;5.880;2022-08-21T05:57:46;31.13;;;21.70;;
1214;SDS011;597;51.998;5.880;2022-08-21T06:00:11;31.40;;;21.27;;
1214;SDS011;597;51.998;5.880;2022-08-21T06:02:37;26.97;;;21.47;;
1214;SDS011;597;51.998;5.880;2022-08-21T06:05:03;23.83;;;18.47;;
1214;SDS011;597;51.998;5.880;2022-08-21T06:07:28;28.30;;;21.93;;
1214;SDS011;597;51.998;5.880;2022-08-21T06:09:53;26.97;;;21.10;;
1214;SDS011;597;51.998;5.880;2022-08-21T06:12:19;24.57;;;19.37;;
1214;SDS011;597;51.998;5.880;2022-08-21T06:14:44;23.67;;;20.40;;
1214;SDS011;597;51.998;5.880;2022-08-21T06:17:11;22.40;;;20.10;;
1214;SDS011;597;51.998;5.880;2022-08-21T06:19:36;24.00;;;20.13;;
1214;SDS011;597;51.998;5.880;2022-08-21T06:22:02;29.40;;;20.90;;
1214;SDS011;597;51.998;5.880;2022-08-21T06:24:27;24.93;;;18.00;;
1214;SDS011;597;51.998;5.880;2022-08-21T06:26:53;25.47;;;18.67;;
1214;SDS011;597;51.998;5.880;2022-08-21T06:29:18;26.20;;;19.10;;
1214;SDS011;597;51.998;5.880;2022-08-21T06:31:45;24.83;;;18.00;;
1214;SDS011;597;51.998;5.880;2022-08-21T06:34:10;22.50;;;18.23;;
1214;SDS011;597;51.998;5.880;2022-08-21T06:36:35;24.23;;;17.37;;
1214;SDS011;597;51.998;5.880;2022-08-21T06:39:02;29.80;;;19.47;;
1214;SDS011;597;51.998;5.880;2022-08-21T06:41:27;19.73;;;15.40;;
1214;SDS011;597;51.998;5.880;2022-08-21T06:43:53;23.17;;;17.30;;
1214;SDS011;597;51.998;5.880;2022-08-21T06:46:18;21.93;;;16.47;;
1214;SDS011;597;51.998;5.880;2022-08-21T06:48:44;23.50;;;16.63;;
1214;SDS011;597;51.998;5.880;2022-08-21T06:51:09;28.33;;;17.83;;
1214;SDS011;597;51.998;5.880;2022-08-21T06:53:35;29.17;;;16.57;;
1214;SDS011;597;51.998;5.880;2022-08-21T06:56:00;21.77;;;16.33;;
1214;SDS011;597;51.998;5.880;2022-08-21T06:58:25;25.07;;;16.33;;
1214;SDS011;597;51.998;5.880;2022-08-21T07:00:51;19.80;;;14.50;;
1214;SDS011;597;51.998;5.880;2022-08-21T07:03:17;23.50;;;15.17;;
1214;SDS011;597;51.998;5.880;2022-08-21T07:05:43;32.67;;;16.63;;
1214;SDS011;597;51.998;5.880;2022-08-21T07:08:08;26.00;;;16.83;;
1214;SDS011;597;51.998;5.880;2022-08-21T07:10:33;21.50;;;15.00;;
1214;SDS011;597;51.998;5.880;2022-08-21T07:12:59;24.67;;;17.70;;
1214;SDS011;597;51.998;5.880;2022-08-21T07:15:24;28.57;;;16.13;;
1214;SDS011;597;51.998;5.880;2022-08-21T07:17:50;23.17;;;15.03;;
1214;SDS011;597;51.998;5.880;2022-08-21T07:20:15;24.20;;;14.57;;
1214;SDS011;597;51.998;5.880;2022-08-21T07:22:40;26.60;;;13.80;;
1214;SDS011;597;51.998;5.880;2022-08-21T07:25:06;21.30;;;14.10;;
1214;SDS011;597;51.998;5.880;2022-08-21T07:27:31;27.83;;;14.80;;
1214;SDS011;597;51.998;5.880;2022-08-21T07:29:57;26.03;;;13.97;;
1214;SDS011;597;51.998;5.880;2022-08-21T07:32:22;24.10;;;14.57;;
1214;SDS011;597;51.998;5.880;2022-08-21T07:34:47;21.53;;;13.80;;
1214;SDS011;597;51.998;5.880;2022-08-21T07:37:12;22.50;;;13.10;;
1214;SDS011;597;51.998;5.880;2022-08-21T07:39:37;19.70;;;12.37;;
1214;SDS011;597;51.998;5.880;2022-08-21T07:42:03;29.40;;;15.20;;
1214;SDS011;597;51.998;5.880;2022-08-21T07:44:28;23.13;;;13.37;;
1214;SDS011;597;51.998;5.880;2022-08-21T07:46:53;18.70;;;12.23;;
1214;SDS011;597;51.998;5.880;2022-08-21T07:49:18;23.23;;;14.70;;
1214;SDS011;597;51.998;5.880;2022-08-21T07:51:44;29.97;;;13.33;;
1214;SDS011;597;51.998;5.880;2022-08-21T07:54:09;26.83;;;12.30;;
1214;SDS011;597;51.998;5.880;2022-08-21T07:56:35;29.00;;;13.30;;
1214;SDS011;597;51.998;5.880;2022-08-21T07:59:00;20.97;;;13.80;;
1214;SDS011;597;51.998;5.880;2022-08-21T08:01:27;16.07;;;11.80;;
1214;SDS011;597;51.998;5.880;2022-08-21T08:03:52;18.67;;;12.97;;
1214;SDS011;597;51.998;5.880;2022-08-21T08:06:18;16.97;;;12.83;;
1214;SDS011;597;51.998;5.880;2022-08-21T08:08:44;20.70;;;12.17;;
1214;SDS011;597;51.998;5.880;2022-08-21T08:11:10;18.97;;;13.57;;
1214;SDS011;597;51.998;5.880;2022-08-21T08:13:39;24.87;;;11.50;;
1214;SDS011;597;51.998;5.880;2022-08-21T08:16:05;24.33;;;12.47;;
1214;SDS011;597;51.998;5.880;2022-08-21T08:18:30;19.07;;;14.53;;
1214;SDS011;597;51.998;5.880;2022-08-21T08:20:55;21.00;;;14.50;;
1214;SDS011;597;51.998;5.880;2022-08-21T08:23:21;26.23;;;14.03;;
1214;SDS011;597;51.998;5.880;2022-08-21T08:25:47;17.33;;;13.03;;
1214;SDS011;597;51.998;5.880;2022-08-21T08:28:13;19.93;;;12.87;;
1214;SDS011;597;51.998;5.880;2022-08-21T08:30:38;23.80;;;11.93;;
1214;SDS011;597;51.998;5.880;2022-08-21T08:33:04;16.27;;;10.97;;
1214;SDS011;597;51.998;5.880;2022-08-21T08:35:29;21.97;;;10.40;;
1214;SDS011;597;51.998;5.880;2022-08-21T08:37:54;21.53;;;10.40;;
1214;SDS011;597;51.998;5.880;2022-08-21T08:43:05;26.20;;;11.60;;
1214;SDS011;597;51.998;5.880;2022-08-21T08:45:32;19.63;;;11.20;;
1214;SDS011;597;51.998;5.880;2022-08-21T08:48:01;15.60;;;9.80;;
1214;SDS011;597;51.998;5.880;2022-08-21T08:50:29;21.93;;;10.70;;
1214;SDS011;597;51.998;5.880;2022-08-21T08:52:59;21.33;;;9.50;;
1214;SDS011;597;51.998;5.880;2022-08-21T08:55:28;19.07;;;9.17;;
1214;SDS011;597;51.998;5.880;2022-08-21T08:57:56;21.00;;;8.50;;
1214;SDS011;597;51.998;5.880;2022-08-21T09:00:23;20.93;;;8.90;;
1214;SDS011;597;51.998;5.880;2022-08-21T09:02:48;19.33;;;8.20;;
1214;SDS011;597;51.998;5.880;2022-08-21T09:05:25;11.10;;;7.50;;
1214;SDS011;597;51.998;5.880;2022-08-21T09:24:00;15.07;;;5.90;;
1214;SDS011;597;51.998;5.880;2022-08-21T09:26:45;10.50;;;5.30;;
1214;SDS011;597;51.998;5.880;2022-08-21T09:29:12;16.00;;;6.00;;
1214;SDS011;597;51.998;5.880;2022-08-21T09:31:39;10.00;;;5.20;;
1214;SDS011;597;51.998;5.880;2022-08-21T09:34:08;8.20;;;3.80;;
1214;SDS011;597;51.998;5.880;2022-08-21T09:36:44;8.07;;;3.60;;
1214;SDS011;597;51.998;5.880;2022-08-21T09:39:11;10.97;;;4.50;;
1214;SDS011;597;51.998;5.880;2022-08-21T09:41:37;12.17;;;5.23;;
1214;SDS011;597;51.998;5.880;2022-08-21T09:44:03;8.20;;;4.50;;
1214;SDS011;597;51.998;5.880;2022-08-21T09:46:29;11.37;;;5.10;;
1214;SDS011;597;51.998;5.880;2022-08-21T09:48:59;11.60;;;4.00;;
1214;SDS011;597;51.998;5.880;2022-08-21T09:51:28;6.37;;;4.20;;
1214;SDS011;597;51.998;5.880;2022-08-21T09:53:56;11.53;;;4.70;;
1214;SDS011;597;51.998;5.880;2022-08-21T09:56:25;10.77;;;3.90;;
1214;SDS011;597;51.998;5.880;2022-08-21T09:59:18;9.93;;;4.10;;
1214;SDS011;597;51.998;5.880;2022-08-21T10:01:45;13.33;;;3.60;;
1214;SDS011;597;51.998;5.880;2022-08-21T10:04:12;11.80;;;3.53;;
1214;SDS011;597;51.998;5.880;2022-08-21T10:06:37;12.47;;;4.73;;
1214;SDS011;597;51.998;5.880;2022-08-21T10:09:04;8.30;;;4.20;;
1214;SDS011;597;51.998;5.880;2022-08-21T10:11:30;12.77;;;3.53;;
1214;SDS011;597;51.998;5.880;2022-08-21T10:13:58;10.17;;;2.93;;
1214;SDS011;597;51.998;5.880;2022-08-21T10:16:29;9.10;;;4.10;;
1214;SDS011;597;51.998;5.880;2022-08-21T10:19:02;7.37;;;3.00;;
1214;SDS011;597;51.998;5.880;2022-08-21T10:21:33;10.57;;;3.40;;
1214;SDS011;597;51.998;5.880;2022-08-21T10:24:22;14.20;;;3.70;;
1214;SDS011;597;51.998;5.880;2022-08-21T10:32:13;9.50;;;3.40;;
1214;SDS011;597;51.998;5.880;2022-08-21T10:34:46;8.33;;;3.33;;
1214;SDS011;597;51.998;5.880;2022-08-21T10:45:38;12.73;;;3.30;;
1214;SDS011;597;51.998;5.880;2022-08-21T10:48:05;7.17;;;3.40;;
1214;SDS011;597;51.998;5.880;2022-08-21T10:50:38;18.03;;;3.23;;
1214;SDS011;597;51.998;5.880;2022-08-21T10:55:34;13.65;;;3.80;;
1214;SDS011;597;51.998;5.880;2022-08-21T10:58:11;7.90;;;3.53;;
1214;SDS011;597;51.998;5.880;2022-08-21T11:00:47;6.70;;;2.37;;
1214;SDS011;597;51.998;5.880;2022-08-21T11:03:17;7.23;;;2.70;;
1214;SDS011;597;51.998;5.880;2022-08-21T11:08:15;8.20;;;2.80;;
1214;SDS011;597;51.998;5.880;2022-08-21T11:10:44;8.83;;;3.00;;
1214;SDS011;597;51.998;5.880;2022-08-21T11:13:15;4.20;;;2.30;;
1214;SDS011;597;51.998;5.880;2022-08-21T11:21:02;6.30;;;3.03;;
1214;SDS011;597;51.998;5.880;2022-08-21T11:23:46;9.40;;;4.33;;
1214;SDS011;597;51.998;5.880;2022-08-21T11:26:15;7.17;;;2.80;;
1214;SDS011;597;51.998;5.880;2022-08-21T11:28:52;7.10;;;2.90;;
1214;SDS011;597;51.998;5.880;2022-08-21T11:39:05;5.63;;;2.60;;
1214;SDS011;597;51.998;5.880;2022-08-21T11:41:33;14.60;;;3.10;;
1214;SDS011;597;51.998;5.880;2022-08-21T11:46:57;6.07;;;3.00;;
1214;SDS011;597;51.998;5.880;2022-08-21T11:49:34;8.63;;;3.40;;
1214;SDS011;597;51.998;5.880;2022-08-21T11:52:13;5.50;;;3.13;;
1214;SDS011;597;51.998;5.880;2022-08-21T11:54:46;9.83;;;3.80;;
1214;SDS011;597;51.998;5.880;2022-08-21T11:57:14;9.90;;;3.80;;
1214;SDS011;597;51.998;5.880;2022-08-21T11:59:43;7.53;;;2.97;;
1214;SDS011;597;51.998;5.880;2022-08-21T12:02:13;11.97;;;3.40;;
1214;SDS011;597;51.998;5.880;2022-08-21T12:04:44;5.90;;;2.77;;
1214;SDS011;597;51.998;5.880;2022-08-21T12:07:11;6.90;;;3.77;;
1214;SDS011;597;51.998;5.880;2022-08-21T12:09:38;8.83;;;3.37;;
1214;SDS011;597;51.998;5.880;2022-08-21T12:14:47;9.80;;;2.87;;
1214;SDS011;597;51.998;5.880;2022-08-21T12:17:18;14.07;;;3.70;;
1214;SDS011;597;51.998;5.880;2022-08-21T12:19:43;4.17;;;2.27;;
1214;SDS011;597;51.998;5.880;2022-08-21T12:22:10;6.10;;;3.03;;
1214;SDS011;597;51.998;5.880;2022-08-21T12:24:43;6.43;;;2.67;;
1214;SDS011;597;51.998;5.880;2022-08-21T12:29:58;5.20;;;2.40;;
1214;SDS011;597;51.998;5.880;2022-08-21T12:32:26;9.20;;;3.30;;
1214;SDS011;597;51.998;5.880;2022-08-21T12:34:58;6.60;;;2.80;;
1214;SDS011;597;51.998;5.880;2022-08-21T12:37:37;5.57;;;2.80;;
1214;SDS011;597;51.998;5.880;2022-08-21T12:40:14;7.23;;;2.83;;
1214;SDS011;597;51.998;5.880;2022-08-21T12:42:44;6.80;;;2.67;;
1214;SDS011;597;51.998;5.880;2022-08-21T12:45:15;4.47;;;2.70;;
1214;SDS011;597;51.998;5.880;2022-08-21T12:47:47;7.00;;;2.60;;
1214;SDS011;597;51.998;5.880;2022-08-21T12:50:16;7.30;;;3.27;;
1214;SDS011;597;51.998;5.880;2022-08-21T12:52:46;6.80;;;2.80;;
1214;SDS011;597;51.998;5.880;2022-08-21T12:55:14;5.17;;;2.37;;
1214;SDS011;597;51.998;5.880;2022-08-21T12:57:43;11.07;;;3.60;;
1214;SDS011;597;51.998;5.880;2022-08-21T13:00:09;5.03;;;2.37;;
1214;SDS011;597;51.998;5.880;2022-08-21T13:02:37;5.40;;;2.23;;
1214;SDS011;597;51.998;5.880;2022-08-21T13:05:07;5.30;;;2.93;;
1214;SDS011;597;51.998;5.880;2022-08-21T13:07:35;7.53;;;2.67;;
1214;SDS011;597;51.998;5.880;2022-08-21T13:10:14;9.87;;;2.90;;
1214;SDS011;597;51.998;5.880;2022-08-21T13:12:41;5.77;;;2.63;;
1214;SDS011;597;51.998;5.880;2022-08-21T13:15:07;5.70;;;3.03;;
1214;SDS011;597;51.998;5.880;2022-08-21T13:17:34;6.20;;;2.40;;
1214;SDS011;597;51.998;5.880;2022-08-21T13:20:18;6.27;;;2.67;;
1214;SDS011;597;51.998;5.880;2022-08-21T13:22:43;5.60;;;2.30;;
1214;SDS011;597;51.998;5.880;2022-08-21T13:25:10;5.70;;;2.37;;
1214;SDS011;597;51.998;5.880;2022-08-21T13:27:36;3.40;;;2.37;;
1214;SDS011;597;51.998;5.880;2022-08-21T13:30:03;4.47;;;2.30;;
1214;SDS011;597;51.998;5.880;2022-08-21T13:32:30;6.50;;;2.80;;
1214;SDS011;597;51.998;5.880;2022-08-21T13:34:56;7.80;;;3.57;;
1214;SDS011;597;51.998;5.880;2022-08-21T13:37:22;6.93;;;3.50;;
1214;SDS011;597;51.998;5.880;2022-08-21T13:39:49;7.40;;;2.87;;
1214;SDS011;597;51.998;5.880;2022-08-21T13:42:15;4.53;;;2.40;;
1214;SDS011;597;51.998;5.880;2022-08-21T13:44:41;5.30;;;2.30;;
1214;SDS011;597;51.998;5.880;2022-08-21T13:47:07;5.30;;;2.30;;
1214;SDS011;597;51.998;5.880;2022-08-21T13:49:36;9.57;;;2.70;;
1214;SDS011;597;51.998;5.880;2022-08-21T13:52:03;4.53;;;2.07;;
1214;SDS011;597;51.998;5.880;2022-08-21T13:54:33;4.70;;;2.10;;
1214;SDS011;597;51.998;5.880;2022-08-21T13:56:58;9.43;;;1.90;;
1214;SDS011;597;51.998;5.880;2022-08-21T13:59:25;6.33;;;2.13;;
1214;SDS011;597;51.998;5.880;2022-08-21T14:01:52;4.90;;;2.03;;
1214;SDS011;597;51.998;5.880;2022-08-21T14:04:23;7.17;;;2.37;;
1214;SDS011;597;51.998;5.880;2022-08-21T14:06:49;5.77;;;2.13;;
1214;SDS011;597;51.998;5.880;2022-08-21T14:09:22;5.27;;;2.50;;
1214;SDS011;597;51.998;5.880;2022-08-21T14:11:50;4.90;;;2.73;;
1214;SDS011;597;51.998;5.880;2022-08-21T14:14:19;4.90;;;2.20;;
1214;SDS011;597;51.998;5.880;2022-08-21T14:16:47;4.93;;;2.27;;
1214;SDS011;597;51.998;5.880;2022-08-21T14:19:18;8.37;;;2.20;;
1214;SDS011;597;51.998;5.880;2022-08-21T14:21:44;9.60;;;2.83;;
1214;SDS011;597;51.998;5.880;2022-08-21T14:24:12;5.00;;;2.40;;
1214;SDS011;597;51.998;5.880;2022-08-21T14:26:44;4.23;;;2.10;;
1214;SDS011;597;51.998;5.880;2022-08-21T14:29:11;5.43;;;2.93;;
1214;SDS011;597;51.998;5.880;2022-08-21T14:31:37;5.67;;;2.90;;
1214;SDS011;597;51.998;5.880;2022-08-21T14:34:03;4.23;;;2.20;;
1214;SDS011;597;51.998;5.880;2022-08-21T14:36:28;4.77;;;2.47;;
1214;SDS011;597;51.998;5.880;2022-08-21T14:38:53;2.60;;;1.80;;
1214;SDS011;597;51.998;5.880;2022-08-21T14:41:20;4.07;;;2.10;;
1214;SDS011;597;51.998;5.880;2022-08-21T14:43:47;7.00;;;2.23;;
1214;SDS011;597;51.998;5.880;2022-08-21T14:46:13;6.43;;;2.33;;
1214;SDS011;597;51.998;5.880;2022-08-21T14:48:39;3.70;;;2.30;;
1214;SDS011;597;51.998;5.880;2022-08-21T14:51:04;5.33;;;2.20;;
1214;SDS011;597;51.998;5.880;2022-08-21T14:53:29;6.73;;;2.30;;
1214;SDS011;597;51.998;5.880;2022-08-21T14:55:54;4.33;;;2.17;;
1214;SDS011;597;51.998;5.880;2022-08-21T14:58:32;5.90;;;2.27;;
1214;SDS011;597;51.998;5.880;2022-08-21T15:00:58;9.43;;;3.03;;
1214;SDS011;597;51.998;5.880;2022-08-21T15:03:28;5.53;;;2.70;;
1214;SDS011;597;51.998;5.880;2022-08-21T15:05:53;4.77;;;2.60;;
1214;SDS011;597;51.998;5.880;2022-08-21T15:08:18;4.37;;;2.10;;
1214;SDS011;597;51.998;5.880;2022-08-21T15:10:43;6.87;;;2.13;;
1214;SDS011;597;51.998;5.880;2022-08-21T15:13:09;6.40;;;2.47;;
1214;SDS011;597;51.998;5.880;2022-08-21T15:15:36;5.20;;;2.60;;
1214;SDS011;597;51.998;5.880;2022-08-21T15:18:03;4.97;;;2.20;;
1214;SDS011;597;51.998;5.880;2022-08-21T15:20:28;6.10;;;2.20;;
1214;SDS011;597;51.998;5.880;2022-08-21T15:22:53;5.60;;;2.73;;
1214;SDS011;597;51.998;5.880;2022-08-21T15:25:19;6.10;;;2.80;;
1214;SDS011;597;51.998;5.880;2022-08-21T15:27:44;4.43;;;2.77;;
1214;SDS011;597;51.998;5.880;2022-08-21T15:30:09;5.63;;;2.70;;
1214;SDS011;597;51.998;5.880;2022-08-21T15:32:35;3.53;;;2.53;;
1214;SDS011;597;51.998;5.880;2022-08-21T15:35:00;9.23;;;3.50;;
1214;SDS011;597;51.998;5.880;2022-08-21T15:37:27;6.07;;;2.97;;
1214;SDS011;597;51.998;5.880;2022-08-21T15:39:52;7.33;;;2.63;;
1214;SDS011;597;51.998;5.880;2022-08-21T15:42:17;4.20;;;2.93;;
1214;SDS011;597;51.998;5.880;2022-08-21T15:44:43;5.20;;;2.63;;
1214;SDS011;597;51.998;5.880;2022-08-21T15:47:11;6.07;;;2.57;;
1214;SDS011;597;51.998;5.880;2022-08-21T15:49:37;6.53;;;2.70;;
1214;SDS011;597;51.998;5.880;2022-08-21T15:52:02;10.27;;;2.87;;
1214;SDS011;597;51.998;5.880;2022-08-21T15:54:27;7.10;;;2.57;;
1214;SDS011;597;51.998;5.880;2022-08-21T15:56:52;6.80;;;2.83;;
1214;SDS011;597;51.998;5.880;2022-08-21T15:59:19;5.23;;;2.33;;
1214;SDS011;597;51.998;5.880;2022-08-21T16:01:46;8.30;;;3.00;;
1214;SDS011;597;51.998;5.880;2022-08-21T16:04:14;10.73;;;2.80;;
1214;SDS011;597;51.998;5.880;2022-08-21T16:06:40;7.07;;;3.30;;
1214;SDS011;597;51.998;5.880;2022-08-21T16:09:05;8.20;;;2.77;;
1214;SDS011;597;51.998;5.880;2022-08-21T16:11:30;5.67;;;3.23;;
1214;SDS011;597;51.998;5.880;2022-08-21T16:13:55;7.60;;;2.47;;